Terminal Aerodrome Forecast
Issued by NWS

Home | Current Version | Previous Version | Text Only | Print | Product List | Glossary On
Versions: 1 2 3 4 5 6 7 8 9 10 11 12 13 14 15 16 17 18 19 20
149
FTUS41 KPBZ 261138
TAFFKL
TAF
KFKL 261138Z 2612/2712 13012G22KT P6SM BKN120
     FM262000 15012G22KT 3SM -SHRA OVC015
     FM270800 16010KT P6SM VCSH OVC008
      AMD LTD TO CLD VIS AND WIND=

USA.gov is the U.S. government's official web portal to all federal, state and local government web resources and services.